Herzlich willkommen!

Am freundlichen Bodensee-Flugplatz zwischen Schwarzwald, Rhein und Alpen.

Aktuelles

23.05.2019
Seenachtfest
9. bis 11. August 2019 (E1308/19 NOTAMN Q) LSAS/QFALC/IV/NBO/A /000/999/4741N00908E005 A) EDTZ B) 1908090800 C) 1908111000 E) AD CLSD.)
— Flugleitung EDTZ
16.06.2019
NOTAM !!!!!
Flugplatz wegen starken Regenfällen überflutet. (E1488/19 NOTAMN Q) LSAS/QFAAP/IV/NBO/A /000/999/4741N00908E005 A) EDTZ B) 1906160730 C) 1906232359 E) AD PPR DUE TO FLOOD.)
— Flugleitung EDTZ

Live am Platz

Die Bilder unserer Webcams werden alle 5 Minuten aktualisiert.

Sonnenaufgang:

03:22 UTC / 05:22 Lokal

Sonnenuntergang:

19:25 UTC / 21:25 Lokal

METAR (16.06.2019 20:50 UTC):

EDNY 162050Z AUTO 03004KT 9999 // NCD 16/13 Q1022
VFR

TAF (16.06.2019 17:00 UTC):

TAF EDNY 161700Z 1618/1718 03005KT 9999 FEW035 BECMG 1707/1709 04010KT BECMG 1717/1718 03005KT

Alle Angaben unverbindlich und ohne Gewähr. Zeiten genähert.

Für den Verkehrslandeplatz Konstanz werden keine offiziellen Wetterinformationen ausgegeben. Daher werden zur Orientierung Daten des nahegelegenen Flughafens Friedrichshafen dargestellt.

Flugwetterdaten zur Verfügung gestellt von wippich.aero.